Data for 09/01/2009

Time Sea-Level Adjusted Pressure Absolute Pressure Temperature Relative Humidity Dew Point   
(mb) (inHg) (mb) (inHg) (C) (F) (%) (C) (F)
00:05 1018 30.06 847 25.01 14 57.1 66 7.7 45.8
00:10 1018 30.06 847 25.01 13.6 56.5 66 7.5 45.6
00:15 1018 30.06 847 25.01 13.4 56.2 66 7.3 45.1
00:20 1018 30.06 847 25.01 13.6 56.4 63 6.8 44.2
00:25 1018 30.06 847 25.01 13.8 56.8 65 7.3 45.2
00:30 1018 30.06 847 25.01 13.7 56.7 66 7.5 45.6
00:35 1018 30.06 847 25.01 13.6 56.4 65 7.1 44.8
00:40 1018 30.06 847 25.01 13.7 56.7 63 7 44.5
00:45 1018 30.06 847 25.01 13.8 56.8 63 6.9 44.5
00:50 1018 30.06 847 25.01 13.8 56.8 61 6.4 43.5
00:55 1018 30.06 847 25.01 14 57.2 60 6.5 43.7
01:00 1018 30.06 847 25.01 14.1 57.3 60 6.4 43.5
01:05 1018 30.06 848 25.04 14.1 57.4 59 6.4 43.5
01:10 1018 30.06 847 25.01 14.2 57.5 59 6.4 43.6
01:15 1018 30.06 847 25.01 14.1 57.4 60 6.5 43.8
01:20 1018 30.06 847 25.01 14.3 57.7 58 6.3 43.3
01:25 1018 30.06 847 25.01 14.3 57.8 58 6.3 43.4
01:30 1018 30.06 847 25.01 14.4 57.9 60 6.8 44.3
01:35 1018 30.06 848 25.04 14.4 57.9 61 7.1 44.8
01:40 1018 30.06 848 25.04 14.3 57.7 62 7.1 44.9
01:45 1018 30.06 848 25.04 14 57.3 61 6.8 44.2
01:50 1019 30.09 848 25.04 13.9 57.1 64 7.4 45.3
01:55 1019 30.09 848 25.04 13.9 56.9 69 8.2 46.8
02:00 1019 30.09 848 25.04 13.7 56.6 71 8.5 47.4
02:05 1019 30.09 848 25.04 13.3 56 75 8.9 48.1
02:10 1019 30.09 848 25.04 12.9 55.3 75 8.7 47.7
02:15 1019 30.09 848 25.04 12.9 55.2 77 9 48.3
02:20 1019 30.09 848 25.04 13.2 55.8 70 7.9 46.2
02:25 1019 30.09 848 25.04 13.7 56.6 70 8.4 47.2
02:30 1019 30.09 848 25.04 13.5 56.4 70 8.3 46.9
02:35 1019 30.09 848 25.04 13.6 56.6 68 7.9 46.3
02:40 1019 30.09 848 25.04 13.9 57 70 8.6 47.6
02:45 1019 30.09 848 25.04 13.9 57.1 72 9 48.1
02:50 1019 30.09 848 25.04 13.8 56.9 78 10 50.1
02:55 1019 30.09 848 25.04 13.5 56.2 78 9.8 49.6
03:00 1019 30.09 848 25.04 13 55.5 80 9.6 49.3
03:05 1019 30.09 848 25.04 12.8 55.1 83 10.1 50.1
03:10 1019 30.09 848 25.04 12.6 54.7 84 10 49.9
03:15 1019 30.09 848 25.04 12.4 54.4 84 9.9 49.8
03:20 1019 30.09 848 25.04 12.6 54.7 82 9.6 49.3
03:25 1019 30.09 848 25.04 12.8 55 81 9.7 49.5
03:30 1019 30.09 848 25.04 12.9 55.2 80 9.6 49.3
03:35 1019 30.09 848 25.04 13.1 55.5 81 9.8 49.7
03:40 1019 30.09 848 25.04 12.9 55.1 82 9.9 49.9
03:45 1019 30.09 848 25.04 12.6 54.7 84 10.1 50.1
03:50 1019 30.09 848 25.04 12.5 54.5 83 9.8 49.6
03:55 1019 30.09 848 25.04 12.5 54.5 82 9.6 49.2
04:00 1019 30.09 848 25.04 12.6 54.7 81 9.4 48.9
04:05 1019 30.09 848 25.04 12.7 54.8 80 9.3 48.7
04:10 1019 30.09 848 25.04 12.7 54.9 80 9.4 48.8
04:15 1019 30.09 848 25.04 12.7 54.9 80 9.4 48.8
04:20 1019 30.09 848 25.04 12.8 55 80 9.4 49
04:25 1019 30.09 848 25.04 12.8 55 81 9.6 49.2
04:30 1019 30.09 848 25.04 12.7 54.9 81 9.6 49.3
04:35 1019 30.09 848 25.04 12.6 54.6 83 9.7 49.5
04:40 1019 30.09 848 25.04 12.5 54.6 81 9.4 49
04:45 1019 30.09 848 25.04 12.7 54.8 80 9.3 48.7
04:50 1019 30.09 848 25.04 12.8 55 79 9.3 48.7
04:55 1019 30.09 848 25.04 12.8 55 80 9.4 48.9
05:00 1019 30.09 848 25.04 12.8 55.1 78 9.2 48.5
05:05 1019 30.09 848 25.04 12.9 55.2 78 9.2 48.6
05:10 1019 30.09 848 25.04 13 55.3 77 9 48.2
05:15 1019 30.09 848 25.04 13.1 55.5 76 8.9 48
05:20 1019 30.09 848 25.04 13.1 55.7 76 9.1 48.3
05:25 1019 30.09 848 25.04 13.1 55.7 76 9.1 48.4
05:30 1019 30.09 848 25.04 13.1 55.5 77 9.1 48.4
05:35 1019 30.09 848 25.04 13.2 55.7 76 9.1 48.4
05:40 1019 30.09 848 25.04 13.3 55.9 75 9 48.2
05:45 1019 30.09 848 25.04 13.2 55.7 80 9.8 49.6
05:50 1019 30.09 848 25.04 13.1 55.6 79 9.6 49.3
05:55 1019 30.09 848 25.04 13 55.5 78 9.3 48.8
06:00 1019 30.09 848 25.04 13.1 55.7 78 9.5 49.1
06:05 1019 30.09 848 25.04 13.2 55.7 74 8.7 47.6
06:10 1019 30.09 848 25.04 13.4 56.2 74 8.9 48
06:15 1019 30.09 848 25.04 13.6 56.5 72 8.6 47.5
06:20 1019 30.09 848 25.04 13.8 56.9 71 8.7 47.6
06:25 1019 30.09 848 25.04 13.8 56.8 72 8.9 48.1
06:30 1019 30.09 848 25.04 13.8 56.8 70 8.5 47.4
06:35 1019 30.09 848 25.04 13.9 57 71 8.8 47.9
06:40 1019 30.09 848 25.04 13.9 57.1 73 9.2 48.5
06:45 1019 30.09 849 25.07 13.5 56.4 73 8.9 48
06:50 1019 30.09 849 25.07 13.3 56 78 9.7 49.4
06:55 1019 30.09 849 25.07 13.3 56 71 8.3 46.9
07:00 1019 30.09 849 25.07 13.7 56.7 74 9.3 48.7
07:05 1019 30.09 849 25.07 13.5 56.4 75 9.3 48.7
07:10 1019 30.09 849 25.07 13.2 55.7 77 9.3 48.7
07:15 1019 30.09 849 25.07 13.2 55.8 73 8.6 47.5
07:20 1020 30.12 849 25.07 13.5 56.2 76 9.4 48.9
07:25 1020 30.12 849 25.07 13.3 55.9 74 8.7 47.7
07:30 1020 30.12 849 25.07 13.4 56 73 8.7 47.7
07:35 1020 30.12 849 25.07 13.3 55.9 75 9 48.2
07:40 1020 30.12 849 25.07 13.1 55.7 75 8.8 47.8
07:45 1020 30.12 849 25.07 13 55.4 72 8.1 46.7
07:50 1020 30.12 849 25.07 13.4 56.1 74 8.8 47.8
07:55 1020 30.12 849 25.07 13.4 56 76 9.2 48.6
08:00 1020 30.12 849 25.07 13.2 55.8 74 8.7 47.7
08:05 1020 30.12 849 25.07 13.2 55.8 75 8.9 47.9
08:10 1020 30.12 850 25.1 13.3 56 76 9.3 48.7
08:15 1020 30.12 850 25.1 13.5 56.2 77 9.5 49
08:20 1020 30.12 850 25.1 13.4 56.2 76 9.4 48.9
08:25 1020 30.12 850 25.1 13.5 56.2 74 9.1 48.3
08:30 1020 30.12 850 25.1 13.6 56.5 74 9 48.3
08:35 1021 30.15 850 25.1 13.7 56.6 74 9.2 48.6
08:40 1021 30.15 850 25.1 13.7 56.6 73 9 48.2
08:45 1021 30.15 850 25.1 13.9 56.9 74 9.4 48.9
08:50 1021 30.15 850 25.1 14 57.2 73 9.4 48.8
08:55 1021 30.15 850 25.1 14.2 57.5 71 9.1 48.4
09:00 1021 30.15 850 25.1 14.4 58 72 9.5 49.1
09:05 1021 30.15 850 25.1 14.6 58.2 73 9.7 49.5
09:10 1021 30.15 850 25.1 14.9 58.7 72 10 49.9
09:15 1021 30.15 850 25.1 14.9 58.8 72 9.9 49.7
09:20 1021 30.15 850 25.1 15 59 71 9.8 49.6
09:25 1021 30.15 850 25.1 15.2 59.4 70 9.9 49.8
09:30 1021 30.15 850 25.1 15.4 59.7 69 9.9 49.8
09:35 1021 30.15 850 25.1 15.5 59.8 68 9.6 49.2
09:40 1021 30.15 850 25.1 15.8 60.4 66 9.5 49.2
09:45 1021 30.15 850 25.1 16 60.8 66 9.6 49.3
09:50 1021 30.15 850 25.1 16.3 61.3 64 9.6 49.3
09:55 1021 30.15 850 25.1 16.7 62 60 9.1 48.4
10:00 1021 30.15 850 25.1 17 62.6 61 9.4 48.9
10:05 1021 30.15 850 25.1 17.3 63.1 61 9.8 49.6
10:10 1021 30.15 850 25.1 17.9 64.3 58 9.6 49.3
10:15 1021 30.15 850 25.1 18.3 65 56 9.6 49.3
10:20 1021 30.15 850 25.1 18.4 65 59 10.2 50.4
10:25 1021 30.15 850 25.1 18.3 65 57 9.8 49.6
10:30 1021 30.15 850 25.1 18.6 65.5 57 10.1 50.1
10:35 1021 30.15 850 25.1 18.9 66 54 9.4 48.9
10:40 1021 30.15 850 25.1 18.8 65.8 57 10.1 50.1
10:45 1021 30.15 850 25.1 19 66.3 54 9.7 49.5
10:50 1021 30.15 850 25.1 19.6 67.3 51 9.2 48.6
10:55 1021 30.15 850 25.1 20 68.1 50 9.5 49
11:00 1021 30.15 851 25.13 20.7 69.2 43 7.8 46
11:05 1021 30.15 851 25.13 20 67.9 49 9.2 48.5
11:10 1022 30.18 851 25.13 20.7 69.3 43 7.7 45.9
11:15 1022 30.18 851 25.13 21.4 70.5 43 8.4 47
11:20 1022 30.18 851 25.13 22 71.6 39 7.7 45.9
11:25 1022 30.18 851 25.13 21.6 70.9 41 7.9 46.2
11:30 1022 30.18 851 25.13 21 69.7 43 8.2 46.8
11:35 1022 30.18 851 25.13 21 69.7 42 7.9 46.2
11:40 1022 30.18 851 25.13 21.2 70.2 41 7.5 45.5
11:45 1022 30.18 851 25.13 21.1 70 42 7.9 46.2
11:50 1022 30.18 851 25.13 21.9 71.4 38 7 44.7
11:55 1022 30.18 851 25.13 22.6 72.7 36 7 44.6
12:00 1022 30.18 851 25.13 22.7 72.9 35 6.6 43.9
12:05 1022 30.18 851 25.13 23.4 74.2 33 6.5 43.7
12:10 1022 30.18 851 25.13 23.8 74.8 32 6.5 43.8
12:15 1022 30.18 851 25.13 23.5 74.3 33 6.4 43.5
12:20 1022 30.18 851 25.13 23.5 74.4 33 6.5 43.7
12:25 1022 30.18 851 25.13 23.5 74.3 32 6.1 42.9
12:30 1022 30.18 851 25.13 24.3 75.7 31 6.3 43.3
12:35 1022 30.18 851 25.13 24.3 75.7 31 6.3 43.4
12:40 1022 30.18 851 25.13 24.3 75.8 30 6.1 42.9
12:45 1021 30.15 851 25.13 24.5 76.1 31 6.5 43.7
12:50 1021 30.15 851 25.13 24.4 75.8 31 6.5 43.7
12:55 1021 30.15 851 25.13 24.2 75.6 32 6.5 43.7
13:00 1021 30.15 851 25.13 24.4 75.9 31 6.3 43.3
13:05 1021 30.15 851 25.13 24.7 76.4 31 6.4 43.5
13:10 1021 30.15 851 25.13 25.2 77.4 30 6.8 44.2
13:15 1021 30.15 850 25.1 25.4 77.7 30 6.8 44.3
13:20 1021 30.15 850 25.1 24.3 75.7 30 6 42.7
13:25 1021 30.15 851 25.13 24.8 76.6 31 6.6 43.9
13:30 1021 30.15 851 25.13 24.8 76.7 31 6.6 43.8
13:35 1021 30.15 850 25.1 25.2 77.3 29 6.1 42.9
13:40 1021 30.15 850 25.1 25.7 78.2 29 6.8 44.2
13:45 1021 30.15 850 25.1 25.6 78.1 29 6.6 43.8
13:50 1021 30.15 850 25.1 25.9 78.5 30 7 44.7
13:55 1021 30.15 850 25.1 25.9 78.7 29 6.6 43.8
14:00 1021 30.15 850 25.1 25.8 78.5 28 6.3 43.4
14:05 1021 30.15 850 25.1 26 78.7 28 6.5 43.7
14:10 1021 30.15 850 25.1 25 77.1 31 6.8 44.2
14:15 1021 30.15 850 25.1 24.7 76.5 30 6.4 43.5
14:20 1021 30.15 850 25.1 26 78.8 29 6.9 44.4
14:25 1021 30.15 850 25.1 26.3 79.3 28 6.4 43.5
14:30 1021 30.15 850 25.1 26.3 79.3 28 6.4 43.6
14:35 1021 30.15 850 25.1 27 80.6 28 7.4 45.4
14:40 1021 30.15 850 25.1 26.6 79.9 29 7.4 45.4
14:45 1021 30.15 850 25.1 26.9 80.4 29 7.6 45.7
14:50 1021 30.15 850 25.1 26.5 79.6 29 7.3 45.1
14:55 1021 30.15 850 25.1 26.3 79.3 28 6.8 44.2
15:00 1021 30.15 850 25.1 26.4 79.6 28 6.5 43.7
15:05 1021 30.15 850 25.1 26.1 79 28 6.5 43.6
15:10 1021 30.15 850 25.1 25.9 78.7 29 7 44.7
15:15 1021 30.15 850 25.1 26.1 79 28 6.5 43.8
15:20 1021 30.15 850 25.1 26.1 79 28 6.7 44
15:25 1021 30.15 850 25.1 25.3 77.5 29 6.4 43.6
15:30 1021 30.15 850 25.1 26.2 79.2 29 7.1 44.7
15:35 1021 30.15 850 25.1 26.9 80.3 27 6.4 43.5
15:40 1021 30.15 850 25.1 27.5 81.4 27 7.1 44.7
15:45 1021 30.15 850 25.1 27.4 81.2 27 7.2 44.9
15:50 1021 30.15 850 25.1 27.1 80.9 28 7.1 44.8
15:55 1021 30.15 850 25.1 26.9 80.5 28 7.1 44.7
16:00 1021 30.15 850 25.1 27.1 80.8 27 6.5 43.8
16:05 1021 30.15 850 25.1 27.1 80.9 27 6.9 44.3
16:10 1021 30.15 850 25.1 26.9 80.3 27 6.4 43.6
16:15 1021 30.15 850 25.1 27.2 80.9 27 6.7 44.1
16:20 1021 30.15 850 25.1 27.7 81.8 26 6.5 43.7
16:25 1021 30.15 850 25.1 27.7 81.9 26 6.8 44.2
16:30 1020 30.12 850 25.1 27.9 82.2 26 6.7 44.1
16:35 1020 30.12 850 25.1 27.4 81.2 26 6.6 43.9
16:40 1020 30.12 850 25.1 27.4 81.3 26 6.3 43.4
16:45 1020 30.12 850 25.1 27.7 81.8 25 6.3 43.4
16:50 1020 30.12 850 25.1 27.8 82.1 25 6.5 43.7
16:55 1020 30.12 850 25.1 27.8 82 25 6.1 42.9
17:00 1020 30.12 850 25.1 27.9 82.2 24 5.9 42.6
17:05 1020 30.12 849 25.07 27.7 81.9 24 5.8 42.4
17:10 1020 30.12 849 25.07 27.8 82 24 5.9 42.5
17:15 1020 30.12 849 25.07 27.7 81.8 26 6.6 43.9
17:20 1020 30.12 849 25.07 27.6 81.6 25 6.1 42.9
17:25 1020 30.12 849 25.07 27.8 82 24 5.7 42.2
17:30 1020 30.12 849 25.07 27.2 80.9 26 6.5 43.7
17:35 1020 30.12 849 25.07 26.7 80 27 6.2 43.1
17:40 1020 30.12 849 25.07 26.2 79.2 28 6.4 43.5
17:45 1020 30.12 849 25.07 26.4 79.6 27 6.3 43.4
17:50 1020 30.12 849 25.07 26.8 80.3 26 6 42.8
17:55 1020 30.12 849 25.07 26.2 79.2 26 5.3 41.6
18:00 1020 30.12 849 25.07 25.7 78.3 27 5.7 42.3
18:05 1020 30.12 849 25.07 25.7 78.3 28 6.4 43.4
18:10 1020 30.12 849 25.07 25.8 78.4 27 5.7 42.3
18:15 1020 30.12 849 25.07 26.1 79 26 5.6 42.1
18:20 1020 30.12 849 25.07 26 78.8 27 5.9 42.7
18:25 1020 30.12 849 25.07 25.7 78.3 29 6.5 43.6
18:30 1020 30.12 849 25.07 25.4 77.6 29 6 42.9
18:35 1020 30.12 849 25.07 25.3 77.6 28 5.8 42.5
18:40 1020 30.12 849 25.07 25.2 77.3 28 5.5 42
18:45 1020 30.12 849 25.07 25.1 77.3 28 5.6 42.1
18:50 1020 30.12 849 25.07 25.1 77.1 28 5.5 41.9
18:55 1020 30.12 849 25.07 25 77 29 6 42.9
19:00 1020 30.12 849 25.07 24.9 76.8 28 5.6 42
19:05 1020 30.12 849 25.07 25 76.9 28 5.3 41.6
19:10 1020 30.12 849 25.07 24.9 76.9 29 5.7 42.2
19:15 1020 30.12 849 25.07 24.8 76.6 31 6.6 43.8
19:20 1020 30.12 849 25.07 24.7 76.5 31 6.7 44
19:25 1020 30.12 849 25.07 24.5 76.2 32 6.8 44.2
19:30 1020 30.12 849 25.07 24.4 75.8 31 6.6 43.9
19:35 1020 30.12 849 25.07 24.2 75.5 32 6.6 44
19:40 1020 30.12 849 25.07 24 75.1 33 7.1 44.8
19:45 1020 30.12 849 25.07 23.8 74.8 33 6.8 44.2
19:50 1020 30.12 849 25.07 23.6 74.6 40 9.4 48.9
19:55 1020 30.12 849 25.07 23.3 73.9 42 9.7 49.4
20:00 1020 30.12 849 25.07 22.8 73 44 10.2 50.3
20:05 1020 30.12 849 25.07 22.4 72.2 49 11.2 52.2
20:10 1020 30.12 849 25.07 21.7 71 53 11.9 53.4
20:15 1020 30.12 850 25.1 21.1 70.1 50 10.4 50.7
20:20 1020 30.12 850 25.1 20.7 69.3 47 9.2 48.5
20:25 1020 30.12 850 25.1 20.3 68.5 49 9.5 49.1
20:30 1021 30.15 850 25.1 19.8 67.6 51 9.6 49.3
20:35 1021 30.15 850 25.1 19.2 66.5 56 10.3 50.5
20:40 1021 30.15 850 25.1 18.7 65.6 54 9.2 48.6
20:45 1021 30.15 850 25.1 18.4 65.2 52 8.4 47.1
20:50 1021 30.15 850 25.1 18.8 65.8 47 7.2 45
20:55 1021 30.15 850 25.1 19.1 66.4 47 7.6 45.7
21:00 1021 30.15 850 25.1 19.3 66.7 44 6.7 44
21:05 1021 30.15 850 25.1 19.3 66.7 46 7.4 45.3
21:10 1021 30.15 850 25.1 19 66.2 46 7.2 44.9
21:15 1021 30.15 850 25.1 18.6 65.5 47 7.3 45.1
21:20 1021 30.15 850 25.1 18.4 65.1 48 7.2 45
21:25 1021 30.15 850 25.1 18.3 64.9 48 7.3 45.1
21:30 1021 30.15 851 25.13 18.2 64.7 47 6.7 44.1
21:35 1022 30.18 851 25.13 19 66.2 40 5.4 41.7
21:40 1022 30.18 851 25.13 20.4 68.7 39 6.1 43
21:45 1022 30.18 851 25.13 20.3 68.6 40 6.4 43.5
21:50 1021 30.15 851 25.13 19.8 67.7 42 6.6 43.8
21:55 1022 30.18 851 25.13 19.6 67.2 42 6.6 43.8
22:00 1022 30.18 851 25.13 19.6 67.2 42 6.4 43.5
22:05 1022 30.18 851 25.13 19.6 67.2 42 6.5 43.7
22:10 1022 30.18 851 25.13 19.4 66.9 43 6.6 43.9
22:15 1022 30.18 851 25.13 19.3 66.7 43 6.4 43.6
22:20 1022 30.18 851 25.13 19 66.3 44 6.7 44.1
22:25 1022 30.18 851 25.13 18.6 65.4 47 7.1 44.7
22:30 1022 30.18 851 25.13 18.1 64.6 47 6.7 44.1
22:35 1022 30.18 851 25.13 18 64.4 47 6.7 44
22:40 1022 30.18 851 25.13 17.8 64.1 48 6.7 44
22:45 1022 30.18 851 25.13 17.8 64 47 6.5 43.8
22:50 1022 30.18 851 25.13 17.7 63.8 49 6.8 44.3
22:55 1022 30.18 851 25.13 17.4 63.3 49 6.8 44.2
23:00 1022 30.18 851 25.13 17.4 63.2 49 6.7 44.1
23:05 1022 30.18 851 25.13 17.4 63.3 48 6.4 43.6
23:10 1022 30.18 851 25.13 17.6 63.7 48 6.5 43.7
23:15 1022 30.18 852 25.16 17.9 64.1 47 6.7 44
23:20 1022 30.18 852 25.16 17.9 64.3 48 7 44.5
23:25 1022 30.18 852 25.16 17.8 64 50 7.4 45.2
23:30 1022 30.18 851 25.13 17.6 63.7 50 7.1 44.8
23:35 1022 30.18 851 25.13 17.3 63.1 51 7.2 45
23:40 1022 30.18 851 25.13 16.9 62.5 52 7.2 45
23:45 1022 30.18 852 25.16 16.6 62 54 7.4 45.3
23:50 1022 30.18 852 25.16 16.6 62 55 7.7 45.8
23:55 1022 30.18 852 25.16 16.9 62.4 52 7.2 44.9
24:00 1022 30.18 851 25.13 17.1 62.8 54 7.7 45.9